createdAt,value
2019-05-03T00:02:28.813Z,97.80
2019-05-03T00:05:07.161Z,97.80
2019-05-03T00:07:34.750Z,98.30
2019-05-03T00:10:02.835Z,97.90
2019-05-03T00:12:30.464Z,97.90
2019-05-03T00:15:04.081Z,97.80
2019-05-03T00:17:32.485Z,97.90
2019-05-03T00:20:02.199Z,97.90
2019-05-03T00:22:29.534Z,98.00
2019-05-03T00:25:06.058Z,98.20
2019-05-03T00:27:26.423Z,98.10
2019-05-03T00:29:53.978Z,98.20
2019-05-03T00:32:23.725Z,98.40
2019-05-03T00:34:53.193Z,98.20
2019-05-03T00:37:22.748Z,98.30
2019-05-03T00:40:06.769Z,98.50
2019-05-03T00:42:34.286Z,98.50
2019-05-03T00:45:02.321Z,98.70
2019-05-03T00:47:29.962Z,98.80
2019-05-03T00:49:57.926Z,98.80
2019-05-03T00:52:25.736Z,98.70
2019-05-03T00:54:53.442Z,98.80
2019-05-03T00:57:22.710Z,98.80
2019-05-03T00:59:50.386Z,98.90
2019-05-03T01:02:18.048Z,99.00
2019-05-03T01:04:45.606Z,99.00
2019-05-03T01:07:13.110Z,98.90
2019-05-03T01:09:42.270Z,98.80
2019-05-03T01:12:10.128Z,98.80
2019-05-03T01:14:38.977Z,99.00
2019-05-03T01:17:06.516Z,99.20
2019-05-03T01:19:34.153Z,99.00
2019-05-03T01:22:03.159Z,98.90
2019-05-03T01:24:34.022Z,98.90
2019-05-03T01:27:02.047Z,98.90
2019-05-03T01:29:29.607Z,99.00
2019-05-03T01:31:57.164Z,98.80
2019-05-03T01:34:24.700Z,98.80
2019-05-03T01:36:52.198Z,98.80
2019-05-03T01:39:22.065Z,98.70
2019-05-03T01:41:51.781Z,98.60
2019-05-03T01:44:19.619Z,98.60
2019-05-03T01:46:48.479Z,98.30
2019-05-03T01:49:35.508Z,98.30
2019-05-03T01:52:28.574Z,98.40
2019-05-03T01:54:56.192Z,98.10
2019-05-03T01:57:23.750Z,98.20
2019-05-03T01:59:52.066Z,98.40
2019-05-03T02:02:37.922Z,98.60
2019-05-03T02:05:27.890Z,98.40
2019-05-03T02:07:55.429Z,98.40
2019-05-03T02:10:22.972Z,98.40
2019-05-03T02:12:52.167Z,98.30
2019-05-03T02:15:21.786Z,98.20
2019-05-03T02:17:51.911Z,97.80
2019-05-03T02:20:23.170Z,97.80
2019-05-03T02:22:57.483Z,97.80
2019-05-03T02:25:28.839Z,97.70
2019-05-03T02:27:57.657Z,97.50
2019-05-03T02:30:27.406Z,97.60
2019-05-03T02:32:59.217Z,97.70
2019-05-03T02:35:28.073Z,97.60
2019-05-03T02:37:59.497Z,97.40
2019-05-03T02:40:33.793Z,97.40
2019-05-03T02:43:12.684Z,97.40
2019-05-03T02:45:59.003Z,97.50
2019-05-03T02:48:40.253Z,97.40
2019-05-03T02:51:12.056Z,97.40
2019-05-03T02:53:45.493Z,97.50
2019-05-03T02:56:21.058Z,97.50
2019-05-03T02:58:46.085Z,97.50
2019-05-03T03:01:16.210Z,97.60
2019-05-03T03:03:45.732Z,97.20
2019-05-03T03:06:17.405Z,97.20
2019-05-03T03:08:47.427Z,97.40
2019-05-03T03:11:16.868Z,97.30
2019-05-03T03:13:46.072Z,97.50
2019-05-03T03:16:16.288Z,97.50
2019-05-03T03:18:45.829Z,97.50
2019-05-03T03:21:16.595Z,97.40
2019-05-03T03:24:08.242Z,97.70
2019-05-03T03:26:42.908Z,97.60
2019-05-03T03:29:09.794Z,97.70
2019-05-03T03:32:29.360Z,97.60
2019-05-03T03:35:11.078Z,97.50
2019-05-03T03:37:35.301Z,97.60
2019-05-03T03:40:06.032Z,97.60
2019-05-03T03:42:38.206Z,97.60
2019-05-03T03:45:07.007Z,97.30
2019-05-03T03:47:37.524Z,97.30
2019-05-03T03:50:09.336Z,97.20
2019-05-03T03:52:37.224Z,97.30
2019-05-03T03:55:07.725Z,97.30
2019-05-03T03:57:36.577Z,97.30
2019-05-03T04:00:06.955Z,97.40
2019-05-03T04:02:35.505Z,97.30
2019-05-03T04:05:05.586Z,97.50
2019-05-03T04:07:35.928Z,97.50
2019-05-03T04:10:19.554Z,97.50
2019-05-03T04:12:52.647Z,97.40
2019-05-03T04:15:47.877Z,97.40
2019-05-03T04:18:26.785Z,97.30
2019-05-03T04:20:58.115Z,97.40
2019-05-03T04:23:30.415Z,97.60
2019-05-03T04:26:01.090Z,97.90
2019-05-03T04:28:30.855Z,97.90
2019-05-03T04:31:02.355Z,97.90
2019-05-03T04:33:30.823Z,97.80
2019-05-03T04:35:58.834Z,97.70
2019-05-03T04:38:26.489Z,98.00
2019-05-03T04:40:56.197Z,98.10
2019-05-03T04:43:26.558Z,98.10
2019-05-03T04:46:08.987Z,98.20
2019-05-03T04:48:36.594Z,98.10
2019-05-03T04:51:05.953Z,98.20
2019-05-03T04:53:38.377Z,98.40
2019-05-03T04:56:06.976Z,98.30
2019-05-03T04:58:36.488Z,98.30
2019-05-03T05:01:06.272Z,97.90
2019-05-03T05:03:36.077Z,98.10
2019-05-03T05:06:06.317Z,98.20
2019-05-03T05:08:35.597Z,98.00
2019-05-03T05:11:05.201Z,97.90
2019-05-03T05:13:32.147Z,97.80
2019-05-03T05:15:59.732Z,97.80
2019-05-03T05:18:35.549Z,97.60
2019-05-03T05:21:09.820Z,97.90
2019-05-03T05:23:56.467Z,98.10
2019-05-03T05:26:25.932Z,97.80
2019-05-03T05:28:56.631Z,97.90
2019-05-03T05:31:25.465Z,97.70
2019-05-03T05:33:54.517Z,97.60
2019-05-03T05:36:22.108Z,97.40
2019-05-03T05:38:49.679Z,97.30
2019-05-03T05:41:17.213Z,97.50
2019-05-03T05:43:44.869Z,97.20
2019-05-03T05:46:14.494Z,96.90
2019-05-03T05:48:46.518Z,97.20
2019-05-03T05:51:15.962Z,97.30
2019-05-03T05:53:44.758Z,97.40
2019-05-03T05:56:35.339Z,97.00
2019-05-03T05:59:28.336Z,97.00
2019-05-03T06:01:59.654Z,97.10
2019-05-03T06:04:27.207Z,97.00
2019-05-03T06:07:14.855Z,97.20
2019-05-03T06:10:00.571Z,96.70
2019-05-03T06:12:35.297Z,96.70
2019-05-03T06:15:07.848Z,96.90
2019-05-03T06:17:41.969Z,96.70
2019-05-03T06:20:21.641Z,96.70
2019-05-03T06:22:59.194Z,96.70
2019-05-03T06:25:31.554Z,96.20
2019-05-03T06:28:00.370Z,95.80
2019-05-03T06:30:37.544Z,95.70
2019-05-03T06:33:05.402Z,96.10
2019-05-03T06:35:34.586Z,95.80
2019-05-03T06:38:02.191Z,95.70
2019-05-03T06:40:30.160Z,95.80
2019-05-03T06:43:08.629Z,96.00
2019-05-03T06:45:27.125Z,96.00
2019-05-03T06:47:55.078Z,96.00
2019-05-03T06:50:25.242Z,96.40
2019-05-03T06:52:54.802Z,96.50
2019-05-03T06:55:24.605Z,96.90
2019-05-03T06:57:52.084Z,97.10
2019-05-03T07:00:57.694Z,97.20
2019-05-03T07:03:54.889Z,97.50
2019-05-03T07:06:37.480Z,98.20
2019-05-03T07:09:27.366Z,97.50
2019-05-03T07:11:55.572Z,97.60
2019-05-03T07:14:24.686Z,97.40
2019-05-03T07:16:52.378Z,96.90
2019-05-03T07:19:19.996Z,96.90
2019-05-03T07:21:47.819Z,96.70
2019-05-03T07:24:15.432Z,96.60
2019-05-03T07:26:44.832Z,96.40
2019-05-03T07:29:12.611Z,97.70
2019-05-03T07:31:40.380Z,95.80
2019-05-03T07:34:09.185Z,95.30
2019-05-03T07:36:36.899Z,95.40
2019-05-03T07:39:06.403Z,95.60
2019-05-03T07:41:35.631Z,95.50
2019-05-03T07:44:05.214Z,95.20
2019-05-03T07:46:34.743Z,95.30
2019-05-03T07:49:02.173Z,95.30
2019-05-03T07:51:29.722Z,94.90
2019-05-03T07:53:57.397Z,94.70
2019-05-03T07:56:44.576Z,95.30
2019-05-03T07:59:14.876Z,95.20
2019-05-03T08:01:54.531Z,95.10
2019-05-03T08:04:25.706Z,94.90
2019-05-03T08:07:01.622Z,94.80
2019-05-03T08:09:30.458Z,95.30
2019-05-03T08:11:58.441Z,94.70
2019-05-03T08:14:36.544Z,94.90
2019-05-03T08:17:56.420Z,94.50
2019-05-03T08:20:25.740Z,94.90
2019-05-03T08:23:09.285Z,94.80
2019-05-03T08:25:56.462Z,95.00
2019-05-03T08:28:29.974Z,95.20
2019-05-03T08:31:47.258Z,94.60
2019-05-03T08:34:35.626Z,94.70
2019-05-03T08:37:18.000Z,93.80
2019-05-03T08:40:46.395Z,94.10
2019-05-03T08:43:15.629Z,94.00
2019-05-03T08:45:49.618Z,94.90
2019-05-03T08:48:28.201Z,94.80
2019-05-03T08:51:04.487Z,95.00
2019-05-03T08:53:45.897Z,94.90
2019-05-03T08:56:16.657Z,95.20
2019-05-03T08:59:10.361Z,94.40
2019-05-03T09:01:46.719Z,94.30
2019-05-03T09:04:35.988Z,94.40
2019-05-03T09:07:01.905Z,94.40
2019-05-03T09:10:18.760Z,94.60
2019-05-03T09:13:34.279Z,93.60
2019-05-03T09:16:07.428Z,93.40
2019-05-03T09:18:41.949Z,92.90
2019-05-03T09:21:32.158Z,93.10
2019-05-03T09:24:17.341Z,93.50
2019-05-03T09:26:56.291Z,92.30
2019-05-03T09:30:06.878Z,93.00
2019-05-03T09:32:40.899Z,93.20
2019-05-03T09:35:36.272Z,92.20
2019-05-03T09:38:07.963Z,92.00
2019-05-03T09:40:45.374Z,91.50
2019-05-03T09:43:22.396Z,91.60
2019-05-03T09:45:54.683Z,91.60
2019-05-03T09:48:31.583Z,91.00
2019-05-03T09:51:14.462Z,91.40
2019-05-03T09:54:00.605Z,90.20
2019-05-03T09:57:06.366Z,90.40
2019-05-03T10:00:16.180Z,91.00
2019-05-03T10:02:45.780Z,90.30
2019-05-03T10:05:25.543Z,90.20
2019-05-03T10:08:01.431Z,89.70
2019-05-03T10:10:37.880Z,90.00
2019-05-03T10:13:26.958Z,90.20
2019-05-03T10:16:07.328Z,89.50
2019-05-03T10:19:03.092Z,90.20
2019-05-03T10:21:48.742Z,88.40
2019-05-03T10:24:26.205Z,89.60
2019-05-03T10:27:05.625Z,88.80
2019-05-03T10:30:09.060Z,88.00
2019-05-03T10:32:46.624Z,88.00
2019-05-03T10:35:54.440Z,87.10
2019-05-03T10:38:39.859Z,87.10
2019-05-03T10:41:32.002Z,86.80
2019-05-03T10:44:14.912Z,87.30
2019-05-03T10:46:45.306Z,87.30
2019-05-03T10:49:29.673Z,88.00
2019-05-03T10:52:08.188Z,88.40
2019-05-03T10:55:01.693Z,90.10
2019-05-03T10:57:41.335Z,90.80
2019-05-03T11:00:44.251Z,91.50
2019-05-03T11:02:59.906Z,91.90
2019-05-03T11:05:27.664Z,91.60
2019-05-03T11:08:04.908Z,92.00
2019-05-03T11:10:43.344Z,92.00
2019-05-03T11:13:22.427Z,92.50
2019-05-03T11:15:54.914Z,92.00
2019-05-03T11:18:25.274Z,92.10
2019-05-03T11:20:57.964Z,92.10
2019-05-03T11:23:34.576Z,92.10
2019-05-03T11:26:02.836Z,92.00
2019-05-03T11:28:31.182Z,92.10
2019-05-03T11:31:29.086Z,91.60
2019-05-03T11:34:00.925Z,91.40
2019-05-03T11:36:40.006Z,91.40
2019-05-03T11:39:11.612Z,91.50
2019-05-03T11:41:45.120Z,91.90
2019-05-03T11:44:51.123Z,91.60
2019-05-03T11:47:19.396Z,92.00
2019-05-03T11:49:47.319Z,92.50
2019-05-03T11:52:17.584Z,92.80
2019-05-03T11:54:45.785Z,92.90
2019-05-03T11:57:27.006Z,93.00
2019-05-03T11:59:57.636Z,92.90
2019-05-03T12:02:55.439Z,92.50
2019-05-03T12:05:33.437Z,92.40
2019-05-03T12:08:15.849Z,92.40
2019-05-03T12:10:53.492Z,92.40
2019-05-03T12:13:36.199Z,92.40
2019-05-03T12:16:31.993Z,92.70
2019-05-03T12:19:31.197Z,92.80
2019-05-03T12:22:08.483Z,92.30
2019-05-03T12:24:46.526Z,91.80
2019-05-03T12:27:51.713Z,91.90
2019-05-03T12:30:59.620Z,91.80
2019-05-03T12:33:35.415Z,91.60
2019-05-03T12:36:05.352Z,91.10
2019-05-03T12:38:34.988Z,91.10
2019-05-03T12:41:05.364Z,91.10
2019-05-03T12:43:37.831Z,91.90
2019-05-03T12:46:05.829Z,92.40
2019-05-03T12:48:40.332Z,91.10
2019-05-03T12:51:15.232Z,90.90
2019-05-03T12:54:01.028Z,90.50
2019-05-03T12:56:46.964Z,90.20
2019-05-03T12:59:39.394Z,90.00
2019-05-03T13:02:35.738Z,88.80
2019-05-03T13:05:08.122Z,87.90
2019-05-03T13:07:42.140Z,88.20
2019-05-03T13:10:10.542Z,88.60
2019-05-03T13:12:52.805Z,87.30
2019-05-03T13:15:20.177Z,88.20
2019-05-03T13:17:58.287Z,88.50
2019-05-03T13:20:31.302Z,87.00
2019-05-03T13:23:05.523Z,87.10
2019-05-03T13:25:38.402Z,87.40
2019-05-03T13:28:09.178Z,88.70
2019-05-03T13:30:38.789Z,88.20
2019-05-03T13:33:23.146Z,87.70
2019-05-03T13:36:12.488Z,88.80
2019-05-03T13:42:53.055Z,89.10
2019-05-03T13:45:16.755Z,89.30
2019-05-03T13:48:04.989Z,89.80
2019-05-03T13:50:35.173Z,89.80
2019-05-03T13:53:04.911Z,87.20
2019-05-03T13:56:30.074Z,86.60
2019-05-03T13:59:41.111Z,87.60
2019-05-03T14:03:59.878Z,88.00
2019-05-03T14:13:05.622Z,89.20
2019-05-03T14:13:59.228Z,88.10
2019-05-03T14:16:27.237Z,87.90
2019-05-03T14:19:02.519Z,88.00
2019-05-03T14:21:39.502Z,87.70
2019-05-03T14:24:09.138Z,86.00
2019-05-03T14:26:38.029Z,86.20
2019-05-03T14:29:09.885Z,85.40
2019-05-03T14:31:41.581Z,85.00
2019-05-03T14:34:10.161Z,85.40
2019-05-03T14:36:41.133Z,85.60
2019-05-03T14:39:11.176Z,84.90
2019-05-03T14:41:46.778Z,85.00
2019-05-03T14:44:18.029Z,85.50
2019-05-03T14:46:48.652Z,85.10
2019-05-03T14:49:17.181Z,84.40
2019-05-03T14:51:45.981Z,84.20
2019-05-03T14:54:14.564Z,84.10
2019-05-03T14:56:53.895Z,83.70
2019-05-03T14:59:50.281Z,83.60
2019-05-03T15:02:40.169Z,84.30
2019-05-03T15:04:59.738Z,83.20
2019-05-03T15:07:30.412Z,83.00
2019-05-03T15:09:58.593Z,83.50
2019-05-03T15:12:28.167Z,83.40
2019-05-03T15:14:56.369Z,83.20
2019-05-03T15:17:24.816Z,83.40
2019-05-03T15:19:54.747Z,83.50
2019-05-03T15:22:26.174Z,81.10
2019-05-03T15:24:54.706Z,79.60
2019-05-03T15:27:26.747Z,82.70
2019-05-03T15:29:57.867Z,84.40
2019-05-03T15:32:27.411Z,84.40
2019-05-03T15:34:57.723Z,84.80
2019-05-03T15:37:27.736Z,85.40
2019-05-03T15:39:56.480Z,83.10
2019-05-03T15:42:29.394Z,82.00
2019-05-03T15:45:16.512Z,81.40
2019-05-03T15:48:05.466Z,78.00
2019-05-03T15:50:44.618Z,75.70
2019-05-03T15:53:15.183Z,75.20
2019-05-03T15:55:43.214Z,74.80
2019-05-03T15:58:15.370Z,74.30
2019-05-03T16:00:45.785Z,74.10
2019-05-03T16:03:17.147Z,74.60
2019-05-03T16:05:49.862Z,74.70
2019-05-03T16:08:18.181Z,75.40
2019-05-03T16:10:48.171Z,75.90
2019-05-03T16:13:16.515Z,75.90
2019-05-03T16:15:44.660Z,76.00
2019-05-03T16:18:16.040Z,76.40
2019-05-03T16:20:45.056Z,77.10
2019-05-03T16:23:15.460Z,77.30
2019-05-03T16:25:45.001Z,78.10
2019-05-03T16:28:24.840Z,78.80
2019-05-03T16:31:00.244Z,79.00
2019-05-03T16:33:28.409Z,79.20
2019-05-03T16:35:57.915Z,79.90
2019-05-03T16:38:27.884Z,80.70
2019-05-03T16:40:56.074Z,80.80
2019-05-03T16:43:26.216Z,80.50
2019-05-03T16:45:55.360Z,80.80
2019-05-03T16:48:25.528Z,80.80
2019-05-03T16:50:53.931Z,80.20
2019-05-03T16:53:25.492Z,80.90
2019-05-03T16:55:54.820Z,81.00
2019-05-03T16:58:24.725Z,80.40
2019-05-03T17:00:55.276Z,80.10
2019-05-03T17:03:38.450Z,79.00
2019-05-03T17:06:23.162Z,79.70
2019-05-03T17:09:09.530Z,80.40
2019-05-03T17:11:38.150Z,80.00
2019-05-03T17:14:15.500Z,81.20
2019-05-03T17:16:42.454Z,81.90
2019-05-03T17:19:11.297Z,82.40
2019-05-03T17:21:51.646Z,83.30
2019-05-03T17:24:35.296Z,83.60
2019-05-03T17:27:07.856Z,83.00
2019-05-03T17:29:56.840Z,83.40
2019-05-03T17:32:30.492Z,87.70
2019-05-03T17:34:58.981Z,87.90
2019-05-03T17:37:27.197Z,84.10
2019-05-03T17:40:21.453Z,84.00
2019-05-03T17:43:14.616Z,84.10
2019-05-03T17:45:49.135Z,83.80
2019-05-03T17:48:17.528Z,83.70
2019-05-03T17:50:46.302Z,83.80
2019-05-03T17:53:57.206Z,84.80
2019-05-03T17:56:52.853Z,84.80
2019-05-03T18:00:00.371Z,85.20
2019-05-03T18:02:45.225Z,84.60
2019-05-03T18:05:56.499Z,84.70
2019-05-03T18:08:44.517Z,84.10
2019-05-03T18:11:17.854Z,84.20
2019-05-03T18:13:50.526Z,84.30
2019-05-03T18:31:55.085Z,85.50
2019-05-03T18:37:32.388Z,86.20
2019-05-03T18:40:00.727Z,86.10
2019-05-03T18:42:35.725Z,86.30
2019-05-03T18:45:20.466Z,86.40
2019-05-03T18:48:01.718Z,86.10
2019-05-03T18:50:31.816Z,85.70
2019-05-03T18:52:59.832Z,85.40
2019-05-03T18:55:27.776Z,85.40
2019-05-03T18:57:57.892Z,85.30
2019-05-03T19:00:29.898Z,85.40
2019-05-03T19:02:58.148Z,86.50
2019-05-03T19:05:28.304Z,86.20
2019-05-03T19:08:07.808Z,86.70
2019-05-03T19:10:45.729Z,86.60
2019-05-03T19:13:34.847Z,86.70
2019-05-03T19:16:12.081Z,87.70
2019-05-03T19:18:40.240Z,87.90
2019-05-03T19:21:08.257Z,88.60
2019-05-03T19:23:36.286Z,88.90
2019-05-03T19:26:11.059Z,89.40
2019-05-03T19:28:39.455Z,89.80
2019-05-03T19:31:11.177Z,90.10
2019-05-03T19:33:42.100Z,90.30
2019-05-03T19:36:10.233Z,90.50
2019-05-03T19:38:39.869Z,90.70
2019-05-03T19:41:07.973Z,91.00
2019-05-03T19:43:38.130Z,91.20
2019-05-03T19:46:07.493Z,91.40
2019-05-03T19:48:50.631Z,91.40
2019-05-03T19:51:19.137Z,91.60
2019-05-03T19:53:51.909Z,91.60
2019-05-03T19:56:21.238Z,91.90
2019-05-03T19:58:50.210Z,91.90
2019-05-03T20:01:41.415Z,91.80
2019-05-03T20:04:36.445Z,91.80
2019-05-03T20:07:19.370Z,92.20
2019-05-03T20:09:49.336Z,92.50
2019-05-03T20:12:17.480Z,92.80
2019-05-03T20:14:45.751Z,92.90
2019-05-03T20:17:14.821Z,92.90
2019-05-03T20:19:45.047Z,92.90
2019-05-03T20:22:15.018Z,92.70
2019-05-03T20:24:44.933Z,92.90
2019-05-03T20:27:15.021Z,92.90
2019-05-03T20:29:44.334Z,93.20
2019-05-03T20:32:13.064Z,93.30
2019-05-03T20:34:52.046Z,93.50
2019-05-03T20:37:30.115Z,93.60
2019-05-03T20:39:58.247Z,93.70
2019-05-03T20:42:44.841Z,93.80
2019-05-03T20:45:18.312Z,93.70
2019-05-03T20:47:57.596Z,93.80
2019-05-03T20:50:27.137Z,94.00
2019-05-03T20:52:55.151Z,94.10
2019-05-03T20:55:23.051Z,94.10
2019-05-03T20:57:50.661Z,93.80
2019-05-03T21:00:21.516Z,93.70
2019-05-03T21:02:53.382Z,94.00
2019-05-03T21:05:27.758Z,94.20
2019-05-03T21:07:48.130Z,94.30
2019-05-03T21:10:15.808Z,94.30
2019-05-03T21:12:43.471Z,94.30
2019-05-03T21:15:18.939Z,94.30
2019-05-03T21:17:55.551Z,94.50
2019-05-03T21:21:00.986Z,94.60
2019-05-03T21:23:30.257Z,94.60
2019-05-03T21:26:12.480Z,94.60
2019-05-03T21:28:34.534Z,94.80
2019-05-03T21:31:02.626Z,94.90
2019-05-03T21:33:30.391Z,94.90
2019-05-03T21:35:57.983Z,94.70
2019-05-03T21:38:25.541Z,94.50
2019-05-03T21:40:54.646Z,94.50
2019-05-03T21:43:22.375Z,94.60
2019-05-03T21:45:55.002Z,94.70
2019-05-03T21:48:26.567Z,94.70
2019-05-03T21:50:54.214Z,94.60
2019-05-03T21:53:21.771Z,94.70
2019-05-03T21:55:49.376Z,94.80
2019-05-03T21:58:16.916Z,94.90
2019-05-03T22:00:59.103Z,94.90
2019-05-03T22:03:26.676Z,94.90
2019-05-03T22:05:57.405Z,95.20
2019-05-03T22:08:24.858Z,95.60
2019-05-03T22:10:52.654Z,95.50
2019-05-03T22:13:20.220Z,95.30
2019-05-03T22:15:55.627Z,95.50
2019-05-03T22:18:27.395Z,95.40
2019-05-03T22:21:10.580Z,95.40
2019-05-03T22:23:49.653Z,95.40
2019-05-03T22:26:17.183Z,95.20
2019-05-03T22:28:44.761Z,95.10
2019-05-03T22:31:12.288Z,95.30
2019-05-03T22:33:39.909Z,95.40
2019-05-03T22:36:08.919Z,95.40
2019-05-03T22:38:38.505Z,95.40
2019-05-03T22:41:06.119Z,95.40
2019-05-03T22:43:34.856Z,95.30
2019-05-03T22:46:02.573Z,95.50
2019-05-03T22:48:30.153Z,95.60
2019-05-03T22:50:57.687Z,95.70
2019-05-03T22:53:25.437Z,95.70
2019-05-03T22:55:54.323Z,95.80
2019-05-03T22:58:22.012Z,96.00
2019-05-03T23:00:49.614Z,96.10
2019-05-03T23:03:17.208Z,95.90
2019-05-03T23:05:45.592Z,95.80
2019-05-03T23:08:14.831Z,95.80
2019-05-03T23:10:42.537Z,96.10
2019-05-03T23:13:10.056Z,95.90
2019-05-03T23:15:37.931Z,95.70
2019-05-03T23:18:05.750Z,95.70
2019-05-03T23:20:56.028Z,95.70
2019-05-03T23:23:41.471Z,95.60
2019-05-03T23:26:09.080Z,95.70
2019-05-03T23:28:36.684Z,96.10
2019-05-03T23:31:05.361Z,96.60
2019-05-03T23:33:34.481Z,96.80
2019-05-03T23:36:02.045Z,96.80
2019-05-03T23:38:29.660Z,97.30
2019-05-03T23:40:57.163Z,97.60
2019-05-03T23:43:25.176Z,97.40
2019-05-03T23:45:54.483Z,97.60
2019-05-03T23:48:22.141Z,97.50
2019-05-03T23:50:49.717Z,97.60
2019-05-03T23:53:17.220Z,97.30
2019-05-03T23:55:48.527Z,96.80
2019-05-03T23:58:16.062Z,96.90
